Alyeska Resort
Max's Hourly Weather Roundup
ALYESKA_MAX 10/22/2014
Click Here for Graph

        DATE  TIME   Air  Wind  Wind  Wind  BATT   Rel
                    Temp   Spd   Dir  Gust  Volt  Hum%
                      F   MPH   AVG   MPH   AVG   AVG

  10/22/2014 07:00    32     3   177     8 12.72    50
  10/22/2014 06:00    31     2    98     6 12.73    53
  10/22/2014 05:00    31     2   166     5 12.74    54
  10/22/2014 04:00    30     1   151     4 12.76    58
  10/22/2014 03:00    31     2   118     4 12.78    64
  10/22/2014 02:00    30     2           4 12.81    69
  10/22/2014 01:00    30     2           4 12.84    75
  10/21/2014 24:00    29     1           3 12.87    79
  10/21/2014 23:00    29     3           4 12.91    81
  10/21/2014 22:00    29     0           2 12.96    82
  10/21/2014 21:00    29     3           6 13.02    79
  10/21/2014 20:00    30     5           8 13.14    78
  10/21/2014 19:00    31     4   220     7 13.38    75
  10/21/2014 18:00    35     2   105     5 13.74    71
  10/21/2014 17:00    35     3   168     7 13.68    76
  10/21/2014 16:00    33     3   208     6 13.65    81
  10/21/2014 15:00    33     2   182     5 13.66    80
  10/21/2014 14:00    32     3   276     6 13.68    84
  10/21/2014 13:00    31     5   144    18 13.69    87
  10/21/2014 12:00    31    11    35    18 13.70    86
  10/21/2014 11:00    30    13    25    19 13.72    90
  10/21/2014 10:00    30    17    38    26 12.89    90
  10/21/2014 09:00    29    14    48    25 12.71    92
  10/21/2014 08:00    29     7    88    22 12.71    93


Click Here for Graph